Newton Field (59B)
Jackman, ME
Field Elevation: 1178
Lat: 45°37.38N  Long: 70°14.56W
CTAF/Unicom Freq: 122.9000
   
    
Weather Advisories
2017-10-20   13:58 Z
Altimeter 29.95" Hg
Wind 280° @ 11 KT
Gusts 16 KT
Visibility 10 SM
Ceiling --
Temperature 11° C (52° F)
Dewpoint 0° C (32° F)
Relative Humidity 46%
Density Altitude --
Condensation Altitude 6,700 feet
Wind and Runways
Indicated Runway = 31
Headwind = 10 kt
Crosswind = 6 kt
History
 
 
 
More Info
NOAA Forecast
 
 
About Us
Belfort Instrument
 
 
FAA Disclaimer: The data displayed is for advisory purposes only and is not to be used for flight planning or operations. For official data, please call (not available) to hear the current automated AWOS voice message.
  METAR 59B 201358Z AUTO 28011G16KT 10 SM 11/00 A2995